Time;durP1;ratioP1;P1;durP2;ratioP2;P2;SDS_P1;SDS_P2;PMS_P1;PMS_P2;Temp;Humidity;BMP_temperature;BMP_pressure;BME280_temperature;BME280_humidity;BME280_pressure;Samples;Min_cycle;Max_cycle;Signal;HPM_P1;HPM_P2
2023/12/01 00:01:04;;;;;;;19.90;12.15;;;;;;;1.86;100.00;98784.69;5073996;28;20136;-41
2023/12/01 00:03:33;;;;;;;22.92;12.70;;;;;;;1.88;100.00;98779.34;5073573;28;20075;-41
2023/12/01 00:06:01;;;;;;;19.73;11.80;;;;;;;1.83;100.00;98783.97;5072019;28;20508;-40
2023/12/01 00:08:30;;;;;;;21.15;12.35;;;;;;;2.03;100.00;98783.88;5073223;28;20202;-41
2023/12/01 00:10:58;;;;;;;20.77;12.02;;;;;;;2.08;100.00;98779.22;5073064;28;20093;-40
2023/12/01 00:13:27;;;;;;;23.05;12.50;;;;;;;2.04;100.00;98780.31;5072506;28;20465;-40
2023/12/01 00:16:00;;;;;;;20.23;11.95;;;;;;;2.14;100.00;98784.19;5073168;28;20044;-40
2023/12/01 00:18:28;;;;;;;22.88;12.45;;;;;;;2.16;100.00;98794.66;5071526;28;20048;-40
2023/12/01 00:20:57;;;;;;;22.13;12.52;;;;;;;2.12;100.00;98803.59;5072928;28;20484;-42
2023/12/01 00:23:29;;;;;;;20.85;12.07;;;;;;;2.12;100.00;98804.44;5072626;28;20514;-40
2023/12/01 00:25:58;;;;;;;22.88;12.38;;;;;;;2.00;100.00;98805.91;5073359;28;20052;-40
2023/12/01 00:28:26;;;;;;;24.02;13.05;;;;;;;1.87;100.00;98812.69;5075616;28;20561;-41
2023/12/01 00:30:54;;;;;;;21.40;12.68;;;;;;;1.85;100.00;98822.44;5074954;28;20045;-41
2023/12/01 00:33:25;;;;;;;22.02;13.00;;;;;;;1.77;100.00;98813.19;5074507;28;20084;-39
2023/12/01 00:35:54;;;;;;;26.05;13.57;;;;;;;2.06;100.00;98814.44;5074169;28;20053;-41
2023/12/01 00:38:22;;;;;;;23.35;13.77;;;;;;;1.89;100.00;98812.59;5074431;28;20130;-46
2023/12/01 00:40:51;;;;;;;26.38;14.00;;;;;;;1.86;100.00;98825.91;5074847;28;20537;-40
2023/12/01 00:43:19;;;;;;;23.80;12.57;;;;;;;1.82;100.00;98816.44;5074503;28;20086;-41
2023/12/01 00:45:48;;;;;;;23.42;13.82;;;;;;;1.97;100.00;98828.88;5074500;28;20049;-41
2023/12/01 00:48:16;;;;;;;29.90;14.77;;;;;;;2.01;100.00;98838.31;5074989;28;20044;-40
2023/12/01 00:50:46;;;;;;;27.65;14.73;;;;;;;2.27;100.00;98837.06;5074714;28;20048;-40
2023/12/01 00:53:14;;;;;;;27.55;14.63;;;;;;;2.40;100.00;98829.41;5073961;28;20490;-40
2023/12/01 00:55:43;;;;;;;27.75;14.70;;;;;;;2.43;100.00;98831.91;5074091;28;20094;-40
2023/12/01 00:58:12;;;;;;;26.95;14.52;;;;;;;2.12;100.00;98836.00;5075255;28;20044;-41
2023/12/01 01:00:40;;;;;;;26.30;14.82;;;;;;;2.16;100.00;98836.72;5075582;28;20049;-43
2023/12/01 01:03:09;;;;;;;25.45;14.25;;;;;;;2.05;100.00;98828.50;5075467;28;20048;-41
2023/12/01 01:05:36;;;;;;;27.80;14.82;;;;;;;2.11;100.00;98842.19;5075635;28;20463;-41
2023/12/01 01:08:06;;;;;;;26.63;14.13;;;;;;;2.12;100.00;98833.38;5075213;28;20109;-40
2023/12/01 01:10:34;;;;;;;26.52;14.27;;;;;;;2.18;100.00;98830.47;5075385;28;20454;-41
2023/12/01 01:13:03;;;;;;;25.63;14.57;;;;;;;2.19;100.00;98837.44;5075188;28;20417;-40
2023/12/01 01:15:32;;;;;;;31.80;16.17;;;;;;;2.13;100.00;98821.97;5076912;28;20066;-43
2023/12/01 01:18:00;;;;;;;27.75;15.20;;;;;;;2.18;100.00;98806.78;5074818;28;20044;-42
2023/12/01 01:20:28;;;;;;;32.05;16.42;;;;;;;2.16;100.00;98821.81;5073530;28;20507;-41
2023/12/01 01:22:59;;;;;;;27.95;14.75;;;;;;;2.14;100.00;98818.41;5072779;28;20048;-42
2023/12/01 01:25:30;;;;;;;29.05;16.27;;;;;;;2.18;100.00;98840.13;5071843;28;20137;-40
2023/12/01 01:28:00;;;;;;;31.25;15.93;;;;;;;2.07;100.00;98824.03;5071789;28;20127;-40
2023/12/01 01:30:28;;;;;;;30.48;16.55;;;;;;;1.90;100.00;98819.56;5070301;28;20083;-41
2023/12/01 01:32:56;;;;;;;31.15;16.13;;;;;;;1.86;100.00;98816.25;5071352;28;20147;-42
2023/12/01 01:35:25;;;;;;;32.30;16.23;;;;;;;1.91;100.00;98813.38;5072234;28;20063;-40
2023/12/01 01:37:53;;;;;;;33.13;16.73;;;;;;;2.07;100.00;98827.50;5071598;28;20094;-42
2023/12/01 01:40:23;;;;;;;32.88;16.70;;;;;;;1.96;100.00;98830.66;5071410;28;20075;-40
2023/12/01 01:42:56;;;;;;;31.85;16.58;;;;;;;2.13;100.00;98836.91;5071107;28;20082;-41
2023/12/01 01:45:24;;;;;;;32.22;17.08;;;;;;;2.08;100.00;98838.88;5071321;28;20048;-42
2023/12/01 01:47:53;;;;;;;33.33;16.52;;;;;;;2.13;100.00;98827.22;5071569;28;20044;-40
2023/12/01 01:50:22;;;;;;;30.75;16.58;;;;;;;2.09;100.00;98820.38;5071536;28;20109;-40
2023/12/01 01:52:52;;;;;;;31.60;16.98;;;;;;;2.10;100.00;98826.50;5071365;28;20080;-42
2023/12/01 01:55:21;;;;;;;32.75;16.63;;;;;;;1.76;100.00;98820.22;5071252;28;20045;-39
2023/12/01 01:57:51;;;;;;;31.55;15.40;;;;;;;1.72;100.00;98816.88;5069719;28;20041;-41
2023/12/01 02:00:23;;;;;;;31.52;16.17;;;;;;;1.79;100.00;98827.97;5071027;28;20194;-41
2023/12/01 02:02:52;;;;;;;29.50;15.93;;;;;;;2.14;100.00;98828.94;5071004;28;20056;-41
2023/12/01 02:05:21;;;;;;;30.10;16.13;;;;;;;2.03;100.00;98822.44;5070958;28;20074;-41
2023/12/01 02:07:49;;;;;;;31.63;16.48;;;;;;;2.14;100.00;98833.34;5071039;28;20044;-39
2023/12/01 02:10:17;;;;;;;30.58;16.15;;;;;;;1.98;100.00;98830.56;5070976;28;20404;-40
2023/12/01 02:12:46;;;;;;;27.20;15.15;;;;;;;1.94;100.00;98826.41;5071158;28;20099;-42
2023/12/01 02:15:15;;;;;;;33.15;17.40;;;;;;;2.01;100.00;98828.63;5074296;28;20535;-40
2023/12/01 02:17:44;;;;;;;30.23;16.10;;;;;;;2.00;100.00;98833.97;5075230;28;20048;-41
2023/12/01 02:20:15;;;;;;;29.85;16.65;;;;;;;2.04;100.00;98845.22;5075037;28;20152;-41
2023/12/01 02:22:46;;;;;;;31.05;16.25;;;;;;;1.96;100.00;98845.59;5074726;28;20489;-40
2023/12/01 02:25:17;;;;;;;33.00;17.25;;;;;;;2.14;100.00;98846.47;5075142;28;20052;-42
2023/12/01 02:27:46;;;;;;;31.05;16.55;;;;;;;1.90;100.00;98840.59;5077114;28;20045;-41
2023/12/01 02:30:14;;;;;;;33.75;16.42;;;;;;;1.82;100.00;98837.47;5076042;28;20112;-40
2023/12/01 02:32:43;;;;;;;32.95;17.65;;;;;;;1.82;100.00;98832.22;5077314;28;20040;-44
2023/12/01 02:35:12;;;;;;;35.83;18.10;;;;;;;1.78;100.00;98835.94;5077492;28;20109;-40
2023/12/01 02:37:40;;;;;;;36.90;18.30;;;;;;;1.75;100.00;98826.41;5075992;28;20064;-41
2023/12/01 02:40:15;;;;;;;34.90;17.40;;;;;;;1.96;100.00;98824.53;5076569;28;20045;-42
2023/12/01 02:42:49;;;;;;;38.38;17.67;;;;;;;1.80;100.00;98829.66;5075679;28;20055;-41
2023/12/01 02:45:18;;;;;;;37.22;18.23;;;;;;;1.84;100.00;98825.13;5074651;28;20051;-41
2023/12/01 02:47:49;;;;;;;37.80;19.65;;;;;;;1.86;100.00;98829.38;5074444;28;20076;-41
2023/12/01 02:50:18;;;;;;;38.05;18.13;;;;;;;1.90;100.00;98835.34;5074467;28;20758;-40
2023/12/01 02:52:46;;;;;;;37.50;18.52;;;;;;;1.82;100.00;98837.47;5074552;28;20381;-40
2023/12/01 02:55:16;;;;;;;41.55;20.05;;;;;;;1.84;100.00;98851.44;5074716;28;20080;-40
2023/12/01 02:57:45;;;;;;;40.03;19.50;;;;;;;2.00;100.00;98853.25;5074209;28;20126;-42
2023/12/01 03:00:14;;;;;;;39.15;19.70;;;;;;;1.82;100.00;98848.84;5073868;28;20048;-40
2023/12/01 03:02:42;;;;;;;40.67;19.73;;;;;;;2.09;100.00;98851.09;5073951;28;20111;-40
2023/12/01 03:05:12;;;;;;;38.60;19.80;;;;;;;1.97;100.00;98842.03;5073826;28;20482;-43
2023/12/01 03:07:41;;;;;;;39.47;18.98;;;;;;;1.92;100.00;98830.84;5074052;28;20507;-40
2023/12/01 03:10:10;;;;;;;40.70;19.38;;;;;;;1.86;100.00;98821.50;5074125;28;20048;-40
2023/12/01 03:12:44;;;;;;;40.15;19.48;;;;;;;1.81;100.00;98820.00;5073961;28;20088;-42
2023/12/01 03:15:13;;;;;;;37.33;18.23;;;;;;;1.91;100.00;98816.84;5073758;28;20098;-41
2023/12/01 03:17:42;;;;;;;40.05;19.52;;;;;;;2.19;100.00;98826.06;5073766;28;20056;-41
2023/12/01 03:20:14;;;;;;;40.95;19.65;;;;;;;2.29;100.00;98817.63;5073620;28;20055;-40
2023/12/01 03:22:46;;;;;;;38.90;19.63;;;;;;;2.36;100.00;98817.34;5073770;28;20060;-41
2023/12/01 03:25:15;;;;;;;41.03;18.92;;;;;;;2.35;100.00;98827.03;5073102;28;20516;-41
2023/12/01 03:27:46;;;;;;;37.13;18.20;;;;;;;2.40;100.00;98832.03;5073273;28;20059;-40
2023/12/01 03:30:16;;;;;;;40.10;18.83;;;;;;;2.46;100.00;98840.50;5073484;28;20048;-41
2023/12/01 03:32:49;;;;;;;41.40;19.60;;;;;;;2.54;100.00;98858.53;5073708;28;20152;-41
2023/12/01 03:35:18;;;;;;;37.33;18.73;;;;;;;2.63;100.00;98862.50;5073404;28;20067;-41
2023/12/01 03:37:49;;;;;;;38.72;18.80;;;;;;;2.60;100.00;98858.22;5073382;28;20052;-40
2023/12/01 03:40:17;;;;;;;38.92;19.13;;;;;;;2.40;100.00;98850.47;5073411;28;20045;-40
2023/12/01 03:42:48;;;;;;;41.92;18.00;;;;;;;2.25;100.00;98846.81;5072225;28;20052;-41
2023/12/01 03:45:19;;;;;;;37.90;18.30;;;;;;;2.47;100.00;98841.34;5073329;28;20049;-41
2023/12/01 03:47:50;;;;;;;38.55;18.58;;;;;;;2.42;100.00;98838.09;5073338;28;20048;-41
2023/12/01 03:50:19;;;;;;;37.38;18.05;;;;;;;2.12;100.00;98845.69;5073306;28;20048;-40
2023/12/01 03:52:50;;;;;;;36.63;18.20;;;;;;;2.41;100.00;98839.00;5072910;28;20044;-40
2023/12/01 03:55:18;;;;;;;40.45;19.20;;;;;;;2.52;100.00;98831.44;5072878;28;20482;-40
2023/12/01 03:57:49;;;;;;;42.85;19.05;;;;;;;2.53;100.00;98833.16;5073077;28;20105;-40
2023/12/01 04:00:21;;;;;;;38.40;17.90;;;;;;;2.48;100.00;98837.78;5071839;28;20060;-41
2023/12/01 04:02:50;;;;;;;40.55;18.42;;;;;;;2.48;100.00;98829.88;5073067;28;20424;-41
2023/12/01 04:05:19;;;;;;;39.05;18.73;;;;;;;2.38;100.00;98834.75;5072795;28;20048;-41
2023/12/01 04:07:51;;;;;;;39.10;17.87;;;;;;;2.48;100.00;98829.88;5072917;28;20570;-40
2023/12/01 04:10:24;;;;;;;35.95;16.88;;;;;;;2.54;100.00;98824.31;5073373;28;20409;-41
2023/12/01 04:12:55;;;;;;;32.53;16.80;;;;;;;2.44;100.00;98825.72;5073068;28;20052;-41
2023/12/01 04:15:26;;;;;;;38.63;17.52;;;;;;;2.48;100.00;98819.34;5073153;28;20048;-41
2023/12/01 04:17:55;;;;;;;37.60;17.75;;;;;;;2.41;100.00;98821.44;5073155;28;20098;-41
2023/12/01 04:20:25;;;;;;;36.30;17.90;;;;;;;2.52;100.00;98820.91;5073005;28;20052;-41
2023/12/01 04:22:59;;;;;;;35.60;17.35;;;;;;;2.56;100.00;98815.41;5072756;28;20529;-39
2023/12/01 04:25:28;;;;;;;40.40;17.90;;;;;;;2.59;100.00;98830.19;5072393;28;20064;-39
2023/12/01 04:28:00;;;;;;;38.35;17.80;;;;;;;2.53;100.00;98825.25;5072644;28;20061;-42
2023/12/01 04:30:31;;;;;;;39.22;18.70;;;;;;;2.40;100.00;98813.63;5072755;28;20076;-42
2023/12/01 04:33:01;;;;;;;36.38;16.50;;;;;;;2.12;100.00;98808.84;5072756;28;20489;-39
2023/12/01 04:35:31;;;;;;;36.10;17.50;;;;;;;2.16;100.00;98826.22;5071428;28;20052;-42
2023/12/01 04:38:03;;;;;;;38.58;17.25;;;;;;;2.26;100.00;98824.84;5071891;28;20613;-42
2023/12/01 04:40:33;;;;;;;37.50;18.10;;;;;;;2.49;100.00;98826.31;5072580;28;20136;-41
2023/12/01 04:43:03;;;;;;;40.17;18.85;;;;;;;2.65;100.00;98840.44;5070992;28;20474;-40
2023/12/01 04:45:33;;;;;;;41.08;19.73;;;;;;;2.76;100.00;98835.47;5072442;28;20406;-40
2023/12/01 04:48:01;;;;;;;42.70;19.20;;;;;;;2.61;100.00;98825.72;5072700;28;20053;-41
2023/12/01 04:50:31;;;;;;;34.72;16.75;;;;;;;2.62;100.00;98813.41;5072716;28;20048;-41
2023/12/01 04:53:00;;;;;;;36.47;17.13;;;;;;;2.63;100.00;98805.44;5072560;28;20418;-39
2023/12/01 04:55:31;;;;;;;36.33;17.10;;;;;;;2.73;100.00;98811.94;5072569;28;20102;-41
2023/12/01 04:57:59;;;;;;;36.38;17.02;;;;;;;2.82;100.00;98824.63;5072259;28;20044;-41
2023/12/01 05:00:29;;;;;;;32.00;16.40;;;;;;;2.81;100.00;98833.47;5071943;28;20048;-41
2023/12/01 05:03:00;;;;;;;39.20;18.45;;;;;;;2.86;100.00;98831.44;5071808;28;20041;-39
2023/12/01 05:05:30;;;;;;;36.80;17.75;;;;;;;2.83;100.00;98814.94;5071676;28;20048;-41
2023/12/01 05:08:01;;;;;;;35.03;16.85;;;;;;;2.79;100.00;98816.88;5071757;28;20106;-40
2023/12/01 05:10:31;;;;;;;35.35;17.67;;;;;;;2.90;100.00;98807.59;5072186;28;20051;-40
2023/12/01 05:13:04;;;;;;;33.90;16.45;;;;;;;2.80;100.00;98818.59;5071841;28;20098;-42
2023/12/01 05:15:36;;;;;;;34.35;16.58;;;;;;;2.92;100.00;98811.00;5071479;28;20443;-40
2023/12/01 05:18:06;;;;;;;38.22;17.00;;;;;;;2.92;100.00;98813.63;5070004;28;20503;-39
2023/12/01 05:20:35;;;;;;;42.35;17.00;;;;;;;2.83;100.00;98802.63;5071249;28;20057;-41
2023/12/01 05:23:05;;;;;;;32.05;16.35;;;;;;;2.88;100.00;98805.84;5070942;28;20106;-40
2023/12/01 05:25:34;;;;;;;32.92;16.05;;;;;;;2.98;100.00;98810.66;5071063;28;20060;-41
2023/12/01 05:28:04;;;;;;;32.00;15.90;;;;;;;3.02;100.00;98818.31;5071445;28;20049;-41
2023/12/01 05:30:36;;;;;;;32.78;16.80;;;;;;;2.94;100.00;98814.38;5071226;28;20040;-43
2023/12/01 05:33:05;;;;;;;33.83;17.27;;;;;;;2.79;100.00;98831.81;5071055;28;20055;-42
2023/12/01 05:35:35;;;;;;;32.65;16.88;;;;;;;2.94;100.00;98851.25;5070232;28;20106;-40
2023/12/01 05:38:05;;;;;;;39.92;18.35;;;;;;;2.87;100.00;98838.41;5071249;28;20044;-44
2023/12/01 05:40:35;;;;;;;34.65;17.35;;;;;;;2.95;100.00;98837.16;5070214;28;20068;-41
2023/12/01 05:43:05;;;;;;;35.58;16.40;;;;;;;2.66;100.00;98826.31;5071133;28;20094;-43
2023/12/01 05:45:36;;;;;;;36.63;16.40;;;;;;;2.82;100.00;98829.03;5071266;28;20040;-42
2023/12/01 05:48:07;;;;;;;36.88;21.40;;;;;;;2.73;100.00;98830.38;5071204;28;20482;-41
2023/12/01 05:50:38;;;;;;;44.65;23.23;;;;;;;2.69;100.00;98820.03;5073456;28;20097;-41
2023/12/01 05:53:07;;;;;;;48.05;25.30;;;;;;;2.88;100.00;98832.19;5074359;28;20106;-41
2023/12/01 05:55:36;;;;;;;54.20;27.67;;;;;;;2.98;100.00;98832.56;5073089;28;20051;-41
2023/12/01 05:58:10;;;;;;;52.30;26.98;;;;;;;2.92;100.00;98813.63;5072777;28;20441;-40
2023/12/01 06:00:41;;;;;;;45.22;23.40;;;;;;;2.84;100.00;98817.50;5071348;28;20052;-41
2023/12/01 06:03:11;;;;;;;49.22;25.33;;;;;;;2.77;100.00;98834.53;5071300;28;20055;-41
2023/12/01 06:05:41;;;;;;;49.92;26.25;;;;;;;2.93;100.00;98834.59;5071004;28;20052;-40
2023/12/01 06:08:09;;;;;;;48.55;24.35;;;;;;;3.04;100.00;98836.69;5070756;28;20055;-40
2023/12/01 06:10:39;;;;;;;43.60;21.15;;;;;;;3.06;100.00;98829.53;5070636;28;20044;-41
2023/12/01 06:13:08;;;;;;;39.65;20.05;;;;;;;2.98;100.00;98837.00;5071051;28;20048;-41
2023/12/01 06:15:36;;;;;;;36.20;17.52;;;;;;;2.88;100.00;98837.47;5070871;28;20522;-40
2023/12/01 06:18:05;;;;;;;38.97;19.00;;;;;;;2.80;100.00;98836.19;5071188;28;20139;-41
2023/12/01 06:20:34;;;;;;;40.83;18.83;;;;;;;2.94;100.00;98852.13;5071091;28;20048;-41
2023/12/01 06:23:06;;;;;;;37.35;18.67;;;;;;;3.03;100.00;98851.66;5070822;28;20048;-41
2023/12/01 06:25:38;;;;;;;32.13;17.15;;;;;;;2.90;100.00;98853.22;5070627;28;20052;-42
2023/12/01 06:28:10;;;;;;;38.78;18.73;;;;;;;2.75;100.00;98841.66;5070794;28;20080;-44
2023/12/01 06:30:40;;;;;;;43.10;19.85;;;;;;;3.02;100.00;98854.34;5071228;28;20086;-41
2023/12/01 06:33:10;;;;;;;34.85;18.30;;;;;;;2.76;100.00;98853.91;5070572;28;20049;-42
2023/12/01 06:35:39;;;;;;;38.90;19.80;;;;;;;2.59;100.00;98849.47;5070694;28;20060;-40
2023/12/01 06:38:08;;;;;;;43.20;20.45;;;;;;;2.72;100.00;98836.56;5070191;28;20090;-42
2023/12/01 06:40:37;;;;;;;39.05;19.52;;;;;;;2.79;100.00;98834.44;5071229;28;20045;-41
2023/12/01 06:43:09;;;;;;;37.08;19.33;;;;;;;2.78;100.00;98852.03;5070740;28;20052;-42
2023/12/01 06:45:41;;;;;;;38.42;18.33;;;;;;;2.71;100.00;98858.56;5070960;28;20121;-41
2023/12/01 06:48:13;;;;;;;42.45;19.00;;;;;;;2.54;100.00;98853.28;5070869;28;20040;-41
2023/12/01 06:50:42;;;;;;;42.15;20.25;;;;;;;2.74;100.00;98855.75;5070702;28;20052;-41
2023/12/01 06:53:10;;;;;;;36.58;18.42;;;;;;;2.83;100.00;98860.56;5070713;28;20044;-40
2023/12/01 06:55:40;;;;;;;35.67;17.63;;;;;;;2.93;100.00;98854.84;5070777;28;20131;-42
2023/12/01 06:58:09;;;;;;;38.72;18.20;;;;;;;2.53;100.00;98851.56;5069558;28;20076;-40
2023/12/01 07:00:39;;;;;;;35.53;17.70;;;;;;;2.64;100.00;98858.94;5072547;28;20079;-41
2023/12/01 07:03:09;;;;;;;36.78;18.85;;;;;;;2.67;100.00;98859.63;5074304;28;20047;-41
2023/12/01 07:05:43;;;;;;;38.25;18.80;;;;;;;2.56;100.00;98864.56;5074337;28;20505;-40
2023/12/01 07:08:13;;;;;;;37.38;18.67;;;;;;;2.78;100.00;98862.56;5074648;28;20078;-40
2023/12/01 07:10:43;;;;;;;39.10;19.27;;;;;;;2.98;100.00;98863.34;5075117;28;20794;-40
2023/12/01 07:13:11;;;;;;;42.35;19.88;;;;;;;2.85;100.00;98869.22;5084237;28;20044;-42
2023/12/01 07:15:41;;;;;;;38.65;18.13;;;;;;;2.55;100.00;98876.88;5094383;28;20080;-40
2023/12/01 07:18:10;;;;;;;40.80;19.67;;;;;;;2.59;100.00;98883.69;5094230;28;20071;-41
2023/12/01 07:20:40;;;;;;;40.10;18.40;;;;;;;2.85;100.00;98887.66;5094310;28;20143;-41
2023/12/01 07:23:08;;;;;;;35.08;18.80;;;;;;;2.93;100.00;98886.44;5087252;28;20041;-41
2023/12/01 07:25:37;;;;;;;36.60;17.73;;;;;;;3.01;100.00;98900.06;5075678;28;20162;-41
2023/12/01 07:28:08;;;;;;;32.85;16.73;;;;;;;2.96;100.00;98902.94;5073878;28;20489;-42
2023/12/01 07:30:40;;;;;;;31.20;16.33;;;;;;;2.95;100.00;98900.38;5074118;28;20060;-42
2023/12/01 07:33:09;;;;;;;34.80;16.80;;;;;;;2.72;100.00;98902.38;5073934;28;20383;-41
2023/12/01 07:35:37;;;;;;;34.10;17.42;;;;;;;2.77;100.00;98855.59;5074020;28;20050;-42
2023/12/01 07:38:07;;;;;;;35.85;16.70;;;;;;;2.32;100.00;98869.28;5073877;28;20055;-41
2023/12/01 07:40:35;;;;;;;32.45;16.60;;;;;;;2.44;100.00;98871.31;5073683;28;20050;-40
2023/12/01 07:43:04;;;;;;;31.80;16.13;;;;;;;2.37;100.00;98862.00;5073901;28;20044;-42
2023/12/01 07:45:34;;;;;;;31.90;16.00;;;;;;;2.45;100.00;98875.63;5073670;28;20489;-41
2023/12/01 07:48:03;;;;;;;31.20;15.65;;;;;;;2.48;100.00;98885.16;5073355;28;20493;-44
2023/12/01 07:50:32;;;;;;;31.10;16.30;;;;;;;2.21;100.00;98890.81;5073407;28;20045;-40
2023/12/01 07:53:04;;;;;;;33.97;16.45;;;;;;;2.54;100.00;98879.59;5073433;28;20593;-40
2023/12/01 07:55:34;;;;;;;32.65;16.15;;;;;;;2.30;100.00;98877.22;5074026;28;20127;-41
2023/12/01 07:58:02;;;;;;;33.30;16.48;;;;;;;2.08;100.00;98891.47;5085485;28;20056;-40
2023/12/01 08:00:31;;;;;;;34.95;16.58;;;;;;;2.23;100.00;98903.94;5067912;28;20037;-42
2023/12/01 08:02:59;;;;;;;34.60;15.82;;;;;;;2.00;100.00;98919.00;5063284;28;20181;-42
2023/12/01 08:05:28;;;;;;;34.78;16.70;;;;;;;2.23;100.00;98912.66;5064344;28;20056;-43
2023/12/01 08:07:56;;;;;;;34.92;16.25;;;;;;;2.25;100.00;98904.69;5064101;28;20051;-41
2023/12/01 08:10:27;;;;;;;35.55;17.20;;;;;;;2.10;100.00;98916.78;5067518;28;20158;-42
2023/12/01 08:13:00;;;;;;;35.25;17.65;;;;;;;2.22;100.00;98900.44;5068013;28;20144;-45
2023/12/01 08:15:30;;;;;;;35.85;17.30;;;;;;;2.19;100.00;98908.47;5066246;28;20045;-41
2023/12/01 08:18:00;;;;;;;37.60;18.20;;;;;;;2.52;100.00;98949.91;5073057;28;20101;-42
2023/12/01 08:20:30;;;;;;;35.20;17.70;;;;;;;2.68;100.00;98911.34;5073007;28;20135;-42
2023/12/01 08:22:59;;;;;;;38.13;18.65;;;;;;;2.46;100.00;98929.97;5073032;28;20127;-43
2023/12/01 08:25:29;;;;;;;40.05;18.35;;;;;;;2.60;100.00;98921.41;5072839;28;20131;-43
2023/12/01 08:28:00;;;;;;;32.20;16.33;;;;;;;2.10;100.00;98916.78;5072744;28;20085;-41
2023/12/01 08:30:28;;;;;;;33.72;17.27;;;;;;;2.21;100.00;98913.66;5072791;28;20049;-40
2023/12/01 08:32:58;;;;;;;35.40;17.10;;;;;;;2.19;100.00;98900.56;5072486;28;20074;-42
2023/12/01 08:35:28;;;;;;;35.67;17.42;;;;;;;2.23;100.00;98915.31;5072947;28;20053;-41
2023/12/01 08:37:56;;;;;;;33.90;17.83;;;;;;;2.31;100.00;98928.06;5072917;28;20049;-41
2023/12/01 08:40:24;;;;;;;33.35;16.85;;;;;;;2.40;100.00;98916.25;5072533;28;20048;-41
2023/12/01 08:42:55;;;;;;;36.25;17.92;;;;;;;2.14;100.00;98913.09;5072895;28;20040;-41
2023/12/01 08:45:25;;;;;;;34.63;17.90;;;;;;;2.28;100.00;98920.31;5072618;28;20492;-40
2023/12/01 08:47:53;;;;;;;35.35;17.42;;;;;;;2.39;100.00;98911.91;5072993;28;20102;-41
2023/12/01 08:50:22;;;;;;;33.60;17.58;;;;;;;2.51;100.00;98911.31;5072266;28;20076;-40
2023/12/01 08:52:51;;;;;;;33.95;17.95;;;;;;;2.50;100.00;98915.72;5072510;28;20458;-41
2023/12/01 08:55:19;;;;;;;35.63;17.35;;;;;;;2.57;100.00;98917.16;5072314;28;20044;-41
2023/12/01 08:57:47;;;;;;;38.22;18.25;;;;;;;2.51;100.00;98912.19;5072263;28;20048;-41
2023/12/01 09:00:20;;;;;;;33.08;17.25;;;;;;;2.52;100.00;98907.78;5072045;28;20159;-42
2023/12/01 09:02:52;;;;;;;32.35;17.15;;;;;;;2.44;100.00;98909.94;5072370;28;20090;-40
2023/12/01 09:05:21;;;;;;;31.98;16.98;;;;;;;2.50;100.00;98920.16;5072225;28;20041;-41
2023/12/01 09:07:50;;;;;;;31.60;16.13;;;;;;;2.61;100.00;98927.53;5072171;28;20095;-41
2023/12/01 09:10:19;;;;;;;33.75;17.73;;;;;;;2.57;100.00;98926.81;5072086;28;20050;-40
2023/12/01 09:12:49;;;;;;;35.33;18.33;;;;;;;2.57;100.00;98930.31;5071821;28;20516;-41
2023/12/01 09:15:18;;;;;;;36.70;17.40;;;;;;;2.57;100.00;98925.03;5072097;28;20094;-41
2023/12/01 09:17:46;;;;;;;35.15;18.50;;;;;;;2.84;100.00;98933.38;5071894;28;20055;-42
2023/12/01 09:20:16;;;;;;;37.13;17.67;;;;;;;3.08;100.00;98938.31;5071866;28;20049;-39
2023/12/01 09:22:45;;;;;;;32.70;17.15;;;;;;;3.06;100.00;98927.03;5071586;28;20072;-42
2023/12/01 09:25:13;;;;;;;34.30;17.05;;;;;;;2.84;100.00;98919.34;5071176;28;20140;-43
2023/12/01 09:27:42;;;;;;;32.22;17.42;;;;;;;2.85;100.00;98919.28;5071899;28;20068;-42
2023/12/01 09:30:15;;;;;;;33.38;17.83;;;;;;;2.77;100.00;98923.22;5071654;28;20132;-41
2023/12/01 09:32:45;;;;;;;38.08;17.52;;;;;;;2.72;100.00;98925.22;5071509;28;20051;-43
2023/12/01 09:35:15;;;;;;;37.55;18.00;;;;;;;2.72;100.00;98915.56;5071883;28;20045;-41
2023/12/01 09:38:05;;;;;;;34.42;16.85;;;;;;;2.62;100.00;98916.94;5071269;28;20052;-43
2023/12/01 09:40:43;;;;;;;33.88;17.20;;;;;;;2.80;100.00;98910.75;5071646;28;20083;-42
2023/12/01 09:43:12;;;;;;;32.95;16.10;;;;;;;2.61;100.00;98904.72;5071153;28;20131;-44
2023/12/01 09:45:41;;;;;;;34.70;17.52;;;;;;;2.62;100.00;98905.56;5071207;28;20047;-42
2023/12/01 09:48:11;;;;;;;32.97;16.52;;;;;;;2.63;100.00;98905.47;5071153;28;20362;-41
2023/12/01 09:50:40;;;;;;;29.75;16.35;;;;;;;2.59;100.00;98910.00;5071286;28;20387;-41
2023/12/01 09:53:11;;;;;;;28.42;14.77;;;;;;;2.59;100.00;98893.38;5071069;28;20052;-41
2023/12/01 09:55:39;;;;;;;31.20;15.75;;;;;;;2.74;100.00;98871.56;5071069;28;20088;-42
2023/12/01 09:58:11;;;;;;;31.02;16.23;;;;;;;2.93;100.00;98866.22;5071268;28;20048;-41
2023/12/01 10:00:39;;;;;;;31.67;16.75;;;;;;;3.02;100.00;98864.91;5071267;28;20048;-41
2023/12/01 10:03:07;;;;;;;33.80;17.10;;;;;;;2.91;100.00;98861.97;5071020;28;20051;-40
2023/12/01 10:05:36;;;;;;;30.10;16.00;;;;;;;2.81;100.00;98861.59;5071410;28;20055;-42
2023/12/01 10:08:05;;;;;;;28.38;16.08;;;;;;;2.62;100.00;98863.44;5071125;28;20470;-41
2023/12/01 10:10:35;;;;;;;26.75;14.98;;;;;;;2.68;100.00;98873.63;5071213;28;20190;-41
2023/12/01 10:13:05;;;;;;;29.65;15.35;;;;;;;2.86;100.00;98857.75;5071139;28;20127;-41
2023/12/01 10:15:37;;;;;;;30.75;15.50;;;;;;;2.84;100.00;98856.16;5070967;28;20144;-41
2023/12/01 10:18:11;;;;;;;31.30;16.23;;;;;;;2.81;100.00;98875.59;5071276;28;20102;-41
2023/12/01 10:20:59;;;;;;;27.90;16.13;;;;;;;2.88;100.00;98863.81;5071021;28;20049;-42
2023/12/01 10:23:28;;;;;;;29.80;15.38;;;;;;;3.00;100.00;98845.69;5070886;28;20478;-42
2023/12/01 10:25:58;;;;;;;30.38;16.13;;;;;;;3.05;100.00;98851.56;5071033;28;20106;-41
2023/12/01 10:28:36;;;;;;;29.77;16.25;;;;;;;2.96;100.00;98854.66;5071250;28;20477;-41
2023/12/01 10:31:06;;;;;;;30.77;15.88;;;;;;;2.66;100.00;98842.13;5071380;28;20052;-41
2023/12/01 10:33:35;;;;;;;33.20;17.48;;;;;;;3.08;100.00;98832.94;5071075;28;20094;-42
2023/12/01 10:36:07;;;;;;;26.95;14.93;;;;;;;3.00;100.00;98846.53;5074001;28;20095;-41
2023/12/01 10:38:37;;;;;;;28.73;16.45;;;;;;;3.19;100.00;98841.16;5074784;28;20048;-41
2023/12/01 10:41:09;;;;;;;32.90;17.02;;;;;;;3.42;100.00;98835.50;5075090;28;21087;-41
2023/12/01 10:43:42;;;;;;;28.45;15.13;;;;;;;3.05;100.00;98841.03;5074746;28;20382;-40
2023/12/01 10:46:13;;;;;;;28.95;15.00;;;;;;;3.39;100.00;98838.31;5074751;28;20060;-41
2023/12/01 10:48:43;;;;;;;27.98;15.93;;;;;;;3.17;100.00;98835.09;5074470;28;20093;-42
2023/12/01 10:51:14;;;;;;;29.15;15.60;;;;;;;3.10;100.00;98834.59;5074475;28;20045;-41
2023/12/01 10:53:44;;;;;;;28.98;16.42;;;;;;;3.18;100.00;98834.16;5074538;28;20504;-41
2023/12/01 10:56:17;;;;;;;30.40;18.10;;;;;;;3.35;100.00;98826.22;5074526;28;20056;-42
2023/12/01 10:58:48;;;;;;;29.33;17.50;;;;;;;3.16;100.00;98823.72;5074361;28;20170;-42
2023/12/01 11:01:17;;;;;;;31.20;17.88;;;;;;;3.50;100.00;98834.25;5074318;28;20114;-41
2023/12/01 11:03:47;;;;;;;31.80;18.52;;;;;;;3.14;100.00;98833.50;5074254;28;20055;-40
2023/12/01 11:06:28;;;;;;;29.05;16.25;;;;;;;3.07;100.00;98824.19;5074373;28;20080;-42
2023/12/01 11:09:08;;;;;;;27.90;14.32;;;;;;;3.03;100.00;98817.41;5074356;28;20049;-42
2023/12/01 11:11:50;;;;;;;25.92;13.73;;;;;;;3.06;100.00;98813.75;5074489;28;20111;-43
2023/12/01 11:14:20;;;;;;;25.15;14.57;;;;;;;2.85;100.00;98797.28;5074742;28;20048;-42
2023/12/01 11:16:49;;;;;;;26.42;13.88;;;;;;;3.00;100.00;98800.91;5074663;28;20127;-41
2023/12/01 11:19:19;;;;;;;26.33;14.07;;;;;;;3.20;100.00;98802.50;5074831;28;20052;-42
2023/12/01 11:21:50;;;;;;;26.83;15.52;;;;;;;3.06;100.00;98798.78;5074845;28;20486;-41
2023/12/01 11:24:26;;;;;;;26.05;13.82;;;;;;;3.20;100.00;98805.97;5075041;28;20501;-41
2023/12/01 11:27:03;;;;;;;26.58;14.35;;;;;;;3.08;100.00;98806.59;5075396;28;20341;-41
2023/12/01 11:29:34;;;;;;;26.63;15.20;;;;;;;3.07;100.00;98803.13;5074555;28;20048;-41